Time;durP1;ratioP1;P1;durP2;ratioP2;P2;SDS_P1;SDS_P2;PMS_P1;PMS_P2;Temp;Humidity;BMP_temperature;BMP_pressure;BME280_temperature;BME280_humidity;BME280_pressure;Samples;Min_cycle;Max_cycle;Signal;HPM_P1;HPM_P2
2022/11/16 00:00:48;;;;;;;;;;;12.40;99.90;;;;;;5032571;28;20363;-83
2022/11/16 00:03:14;;;;;;;;;;;12.40;99.90;;;;;;5069885;22;19924;-83
2022/11/16 00:05:39;;;;;;;;;;;12.50;99.90;;;;;;5075088;28;19917;-83
2022/11/16 00:08:05;;;;;;;;;;;12.50;99.90;;;;;;5072706;28;20376;-83
2022/11/16 00:10:30;;;;;;;;;;;12.40;99.90;;;;;;5071615;28;19909;-83
2022/11/16 00:12:56;;;;;;;;;;;12.50;99.90;;;;;;5072276;28;19908;-83
2022/11/16 00:15:21;;;;;;;;;;;12.50;99.90;;;;;;5072831;28;19912;-83
2022/11/16 00:17:47;;;;;;;;;;;12.50;99.90;;;;;;5072597;28;19908;-82
2022/11/16 00:20:13;;;;;;;;;;;12.50;99.90;;;;;;5071230;28;19908;-83
2022/11/16 00:22:38;;;;;;;;;;;12.50;99.90;;;;;;5075714;28;20389;-83
2022/11/16 00:25:04;;;;;;;;;;;12.50;99.90;;;;;;5075229;28;19962;-83
2022/11/16 00:27:29;;;;;;;;;;;12.50;99.90;;;;;;5076609;28;19908;-83
2022/11/16 00:29:55;;;;;;;;;;;12.50;99.90;;;;;;5076584;28;19919;-83
2022/11/16 00:32:20;;;;;;;;;;;12.60;99.90;;;;;;5076539;28;19937;-83
2022/11/16 00:34:46;;;;;;;;;;;12.50;99.90;;;;;;5076497;28;19909;-82
2022/11/16 00:37:11;;;;;;;;;;;12.50;99.90;;;;;;5076520;28;20297;-83
2022/11/16 00:39:36;;;;;;;;;;;12.50;99.90;;;;;;5076543;28;19959;-82
2022/11/16 00:42:02;;;;;;;;;;;12.50;99.90;;;;;;5074972;28;19918;-83
2022/11/16 00:44:28;;;;;;;;;;;12.50;99.90;;;;;;5075203;28;19916;-82
2022/11/16 00:46:53;;;;;;;;;;;12.50;99.90;;;;;;5075172;28;20007;-83
2022/11/16 00:49:18;;;;;;;;;;;12.50;99.90;;;;;;5076401;28;19908;-82
2022/11/16 00:51:44;;;;;;;;;;;12.50;99.90;;;;;;5084115;28;19930;-82
2022/11/16 00:54:09;;;;;;;;;;;12.50;99.90;;;;;;5084821;28;19994;-82
2022/11/16 00:56:35;;;;;;;;;;;12.50;99.90;;;;;;5087401;28;19961;-82
2022/11/16 00:59:00;;;;;;;;;;;12.50;99.90;;;;;;5087429;28;19916;-82
2022/11/16 01:01:26;;;;;;;;;;;12.50;99.90;;;;;;5086572;28;19915;-82
2022/11/16 01:03:51;;;;;;;;;;;12.50;99.90;;;;;;5086269;28;19916;-82
2022/11/16 01:06:17;;;;;;;;;;;12.50;99.90;;;;;;5086090;28;19943;-82
2022/11/16 01:08:43;;;;;;;;;;;12.50;99.90;;;;;;5088369;28;19930;-82
2022/11/16 01:13:55;;;;;;;;;;;12.40;99.90;;;;;;5086512;28;19935;-82
2022/11/16 01:16:21;;;;;;;;;;;12.40;99.90;;;;;;5085058;28;19908;-82
2022/11/16 01:18:47;;;;;;;;;;;12.40;99.90;;;;;;5086620;28;19909;-82
2022/11/16 01:21:13;;;;;;;;;;;12.40;99.90;;;;;;5085872;28;19915;-82
2022/11/16 01:23:38;;;;;;;;;;;12.30;99.90;;;;;;5086216;28;19912;-81
2022/11/16 01:26:04;;;;;;;;;;;12.40;99.90;;;;;;5086449;28;19908;-82
2022/11/16 01:28:30;;;;;;;;;;;12.40;99.90;;;;;;5071270;28;19913;-81
2022/11/16 01:30:56;;;;;;;;;;;12.40;99.90;;;;;;5068296;28;20370;-82
2022/11/16 01:33:22;;;;;;;;;;;12.40;99.90;;;;;;5068315;28;19920;-81
2022/11/16 01:35:48;;;;;;;;;;;12.40;99.90;;;;;;5068720;28;19915;-82
2022/11/16 01:38:13;;;;;;;;;;;12.40;99.90;;;;;;5070819;28;19944;-82
2022/11/16 01:40:39;;;;;;;;;;;12.40;99.90;;;;;;5069268;28;20274;-82
2022/11/16 01:43:14;;;;;;;;;;;12.40;99.90;;;;;;5067317;28;19923;-81
2022/11/16 01:45:42;;;;;;;;;;;12.40;99.90;;;;;;5066082;28;19916;-81
2022/11/16 01:48:13;;;;;;;;;;;12.40;99.90;;;;;;5065532;28;19916;-81
2022/11/16 01:50:39;;;;;;;;;;;12.40;99.90;;;;;;5067060;28;19978;-81
2022/11/16 01:53:05;;;;;;;;;;;12.50;99.90;;;;;;5066424;28;19923;-81
2022/11/16 01:55:32;;;;;;;;;;;12.40;99.90;;;;;;5070577;28;19948;-81
2022/11/16 01:57:58;;;;;;;;;;;12.40;99.90;;;;;;5071608;28;19909;-81
2022/11/16 02:00:23;;;;;;;;;;;12.50;99.90;;;;;;5070952;28;19909;-82
2022/11/16 02:02:49;;;;;;;;;;;12.40;99.90;;;;;;5072100;28;19964;-81
2022/11/16 02:05:16;;;;;;;;;;;12.40;99.90;;;;;;5070795;28;19913;-81
2022/11/16 02:10:56;;;;;;;;;;;12.40;99.90;;;;;;5069348;28;19935;-81
2022/11/16 02:13:24;;;;;;;;;;;12.40;99.90;;;;;;5069715;28;19909;-82
2022/11/16 02:16:05;;;;;;;;;;;12.40;99.90;;;;;;5069778;28;19909;-82
2022/11/16 02:18:57;;;;;;;;;;;12.40;99.90;;;;;;5070493;28;19931;-82
2022/11/16 02:21:25;;;;;;;;;;;12.40;99.90;;;;;;5062507;28;19931;-82
2022/11/16 02:23:51;;;;;;;;;;;12.50;99.90;;;;;;5071019;28;20003;-81
2022/11/16 02:26:35;;;;;;;;;;;12.50;99.90;;;;;;5072475;28;19916;-82
2022/11/16 02:29:03;;;;;;;;;;;12.50;99.90;;;;;;5071319;28;19936;-81
2022/11/16 02:31:33;;;;;;;;;;;12.50;99.90;;;;;;5070547;28;19909;-81
2022/11/16 02:33:59;;;;;;;;;;;12.50;99.90;;;;;;5070606;28;19909;-82
2022/11/16 02:36:25;;;;;;;;;;;12.50;99.90;;;;;;5070829;28;19913;-83
2022/11/16 02:38:55;;;;;;;;;;;12.50;99.90;;;;;;5072303;28;19909;-81
2022/11/16 02:41:22;;;;;;;;;;;12.60;99.90;;;;;;5070398;28;19909;-81
2022/11/16 02:43:58;;;;;;;;;;;12.60;99.90;;;;;;5070493;28;20003;-81
2022/11/16 02:46:27;;;;;;;;;;;12.60;99.90;;;;;;5070456;28;19941;-81
2022/11/16 02:48:54;;;;;;;;;;;12.60;99.90;;;;;;5071387;28;19962;-82
2022/11/16 02:51:21;;;;;;;;;;;12.60;99.90;;;;;;5071226;28;20255;-82
2022/11/16 02:53:56;;;;;;;;;;;12.60;99.90;;;;;;5069616;28;19962;-81
2022/11/16 02:56:22;;;;;;;;;;;12.60;99.90;;;;;;5069236;28;19932;-81
2022/11/16 02:58:48;;;;;;;;;;;12.70;99.90;;;;;;5070738;28;19909;-81
2022/11/16 03:01:17;;;;;;;;;;;12.70;99.90;;;;;;5069727;28;19931;-82
2022/11/16 03:03:48;;;;;;;;;;;12.70;99.90;;;;;;5070528;28;19917;-81
2022/11/16 03:06:19;;;;;;;;;;;12.70;99.90;;;;;;5070595;28;19916;-82
2022/11/16 03:08:49;;;;;;;;;;;12.70;99.90;;;;;;5070437;28;19913;-82
2022/11/16 03:14:01;;;;;;;;;;;12.70;99.90;;;;;;5070719;28;19958;-81
2022/11/16 03:16:30;;;;;;;;;;;12.70;99.90;;;;;;5070531;28;19909;-81
2022/11/16 03:18:57;;;;;;;;;;;12.80;99.90;;;;;;5070743;28;19909;-82
2022/11/16 03:21:26;;;;;;;;;;;12.80;99.90;;;;;;5069837;28;19941;-81
2022/11/16 03:23:52;;;;;;;;;;;12.80;99.90;;;;;;5070366;28;19912;-82
2022/11/16 03:26:19;;;;;;;;;;;12.80;99.90;;;;;;5070504;28;19972;-81
2022/11/16 03:28:56;;;;;;;;;;;12.70;99.90;;;;;;5069245;28;19912;-82
2022/11/16 03:31:26;;;;;;;;;;;12.70;99.90;;;;;;5071337;28;19909;-82
2022/11/16 03:33:57;;;;;;;;;;;12.70;99.90;;;;;;5070843;28;19916;-81
2022/11/16 03:36:25;;;;;;;;;;;12.60;99.90;;;;;;5069888;28;19916;-81
2022/11/16 03:38:51;;;;;;;;;;;12.60;99.90;;;;;;5069844;28;19992;-82
2022/11/16 03:41:18;;;;;;;;;;;12.60;99.90;;;;;;5070991;28;19916;-81
2022/11/16 03:43:44;;;;;;;;;;;12.60;99.90;;;;;;5069356;28;19919;-82
2022/11/16 03:46:10;;;;;;;;;;;12.60;99.90;;;;;;5069303;28;19909;-81
2022/11/16 03:48:38;;;;;;;;;;;12.60;99.90;;;;;;5069491;28;19908;-81
2022/11/16 03:51:04;;;;;;;;;;;12.60;99.90;;;;;;5070758;28;19913;-81
2022/11/16 03:53:29;;;;;;;;;;;12.50;99.90;;;;;;5070884;28;19909;-81
2022/11/16 03:55:55;;;;;;;;;;;12.50;99.90;;;;;;5069540;28;19912;-81
2022/11/16 03:58:20;;;;;;;;;;;12.50;99.90;;;;;;5070442;28;19909;-82
2022/11/16 04:00:46;;;;;;;;;;;12.60;99.90;;;;;;5071576;28;19919;-81
2022/11/16 04:03:11;;;;;;;;;;;12.60;99.90;;;;;;5070593;28;19950;-81
2022/11/16 04:24:56;;;;;;;;;;;12.50;99.90;;;;;;5073879;28;19915;-80
2022/11/16 04:30:10;;;;;;;;;;;12.50;99.90;;;;;;5073740;28;19963;-80
2022/11/16 04:38:04;;;;;;;;;;;12.50;99.90;;;;;;5073626;28;20372;-80
2022/11/16 04:40:30;;;;;;;;;;;12.50;99.90;;;;;;5074094;28;19909;-82
2022/11/16 04:42:59;;;;;;;;;;;12.50;99.90;;;;;;5074212;28;20033;-83
2022/11/16 04:48:10;;;;;;;;;;;12.60;99.90;;;;;;5074404;28;19920;-82
2022/11/16 04:50:36;;;;;;;;;;;12.60;99.90;;;;;;5073798;28;19909;-82
2022/11/16 04:53:01;;;;;;;;;;;12.60;99.90;;;;;;5073166;28;19931;-81
2022/11/16 04:55:27;;;;;;;;;;;12.60;99.90;;;;;;5074207;28;19931;-82
2022/11/16 04:57:53;;;;;;;;;;;12.70;99.90;;;;;;5074619;28;19952;-82
2022/11/16 05:00:18;;;;;;;;;;;12.60;99.90;;;;;;5074645;28;19909;-83
2022/11/16 05:02:44;;;;;;;;;;;12.60;99.90;;;;;;5069949;28;19935;-83
2022/11/16 05:05:10;;;;;;;;;;;12.60;99.90;;;;;;5064373;28;19984;-82
2022/11/16 05:07:36;;;;;;;;;;;12.50;99.90;;;;;;5065586;28;19935;-81
2022/11/16 05:10:02;;;;;;;;;;;12.50;99.90;;;;;;5068564;28;19908;-81
2022/11/16 05:12:28;;;;;;;;;;;12.40;99.90;;;;;;5068295;28;19924;-82
2022/11/16 05:14:54;;;;;;;;;;;12.40;99.90;;;;;;5069379;28;19912;-82
2022/11/16 05:17:20;;;;;;;;;;;12.30;99.90;;;;;;5069143;28;19972;-82
2022/11/16 05:22:30;;;;;;;;;;;12.40;99.90;;;;;;5069625;28;19974;-82
2022/11/16 05:24:56;;;;;;;;;;;12.30;99.90;;;;;;5069160;28;19912;-83
2022/11/16 05:27:21;;;;;;;;;;;12.30;99.90;;;;;;5070291;28;19915;-82
2022/11/16 05:29:50;;;;;;;;;;;12.30;99.90;;;;;;5068887;28;19931;-82
2022/11/16 05:32:16;;;;;;;;;;;12.30;99.90;;;;;;5069435;28;19908;-82
2022/11/16 05:34:42;;;;;;;;;;;12.20;99.90;;;;;;5068986;28;19915;-82
2022/11/16 05:37:07;;;;;;;;;;;12.20;99.90;;;;;;5069947;28;19909;-82
2022/11/16 05:39:33;;;;;;;;;;;12.10;99.90;;;;;;5069499;28;19903;-82
2022/11/16 05:41:59;;;;;;;;;;;12.00;99.90;;;;;;5069092;28;19913;-81
2022/11/16 05:44:24;;;;;;;;;;;11.90;99.90;;;;;;5070049;28;19984;-82
2022/11/16 05:46:50;;;;;;;;;;;11.80;99.90;;;;;;5069806;28;19908;-82
2022/11/16 05:49:15;;;;;;;;;;;11.80;99.90;;;;;;5069550;28;19943;-83
2022/11/16 05:51:43;;;;;;;;;;;11.80;99.90;;;;;;5072485;28;19908;-82
2022/11/16 05:54:11;;;;;;;;;;;11.70;99.90;;;;;;5071206;28;19934;-83
2022/11/16 05:56:36;;;;;;;;;;;11.70;99.90;;;;;;5070535;28;19916;-82
2022/11/16 05:59:02;;;;;;;;;;;11.60;99.90;;;;;;5070887;28;20000;-82
2022/11/16 06:01:27;;;;;;;;;;;11.60;99.90;;;;;;5070431;28;19915;-81
2022/11/16 06:03:54;;;;;;;;;;;11.60;99.90;;;;;;5079054;22;19936;-81
2022/11/16 06:06:22;;;;;;;;;;;11.50;99.90;;;;;;5070559;28;19972;-83
2022/11/16 06:08:50;;;;;;;;;;;11.50;99.90;;;;;;5071492;28;19909;-80
2022/11/16 06:11:16;;;;;;;;;;;11.40;99.90;;;;;;5071385;28;19913;-82
2022/11/16 06:13:45;;;;;;;;;;;11.30;99.90;;;;;;5053032;28;19943;-83
2022/11/16 06:16:11;;;;;;;;;;;11.30;99.90;;;;;;5070832;28;19909;-80
2022/11/16 06:18:43;;;;;;;;;;;11.30;99.90;;;;;;5053305;28;19913;-83
2022/11/16 06:21:10;;;;;;;;;;;11.20;99.90;;;;;;5071376;28;19948;-81
2022/11/16 06:23:49;;;;;;;;;;;11.20;99.90;;;;;;5071182;28;19921;-82
2022/11/16 06:26:15;;;;;;;;;;;11.20;99.90;;;;;;5071282;28;19909;-82
2022/11/16 06:28:41;;;;;;;;;;;11.10;99.90;;;;;;5070131;28;19916;-81
2022/11/16 06:31:07;;;;;;;;;;;11.10;99.90;;;;;;5069894;28;19909;-82
2022/11/16 06:33:50;;;;;;;;;;;11.00;99.90;;;;;;5054729;28;19913;-82
2022/11/16 06:36:16;;;;;;;;;;;11.00;99.90;;;;;;5070689;28;19904;-82
2022/11/16 06:38:43;;;;;;;;;;;10.90;99.90;;;;;;5053954;28;19912;-81
2022/11/16 06:41:12;;;;;;;;;;;10.90;99.90;;;;;;5070593;28;19919;-82
2022/11/16 06:43:41;;;;;;;;;;;10.90;99.90;;;;;;5071808;28;20281;-81
2022/11/16 06:46:07;;;;;;;;;;;10.80;99.90;;;;;;5070855;28;19928;-81
2022/11/16 06:48:33;;;;;;;;;;;10.70;99.90;;;;;;5071122;28;19952;-81
2022/11/16 06:51:00;;;;;;;;;;;10.70;99.90;;;;;;5069208;28;20398;-81
2022/11/16 06:53:26;;;;;;;;;;;10.60;99.90;;;;;;5053716;28;19917;-81
2022/11/16 06:55:52;;;;;;;;;;;10.50;99.90;;;;;;5052624;28;19898;-81
2022/11/16 06:58:20;;;;;;;;;;;10.50;99.90;;;;;;5071068;28;19909;-82
2022/11/16 07:00:48;;;;;;;;;;;10.50;99.90;;;;;;5069755;28;19897;-82
2022/11/16 07:03:13;;;;;;;;;;;10.50;99.90;;;;;;5067603;28;19943;-81
2022/11/16 07:05:40;;;;;;;;;;;10.40;99.90;;;;;;5054786;28;20370;-83
2022/11/16 07:08:05;;;;;;;;;;;10.50;99.90;;;;;;5054797;28;19916;-80
2022/11/16 07:10:31;;;;;;;;;;;10.40;99.90;;;;;;5054476;28;19908;-81
2022/11/16 07:12:59;;;;;;;;;;;10.40;99.90;;;;;;5052408;28;19952;-82
2022/11/16 07:15:25;;;;;;;;;;;10.40;99.90;;;;;;5054154;28;20000;-82
2022/11/16 07:17:50;;;;;;;;;;;10.30;99.90;;;;;;5055155;28;19942;-80
2022/11/16 07:20:17;;;;;;;;;;;10.30;99.90;;;;;;5052484;28;19963;-81
2022/11/16 07:22:42;;;;;;;;;;;10.30;99.90;;;;;;5053774;28;19931;-81
2022/11/16 07:25:08;;;;;;;;;;;10.30;99.90;;;;;;5053619;28;19916;-81
2022/11/16 07:27:33;;;;;;;;;;;10.30;99.90;;;;;;5053994;28;20428;-81
2022/11/16 07:30:00;;;;;;;;;;;10.40;99.90;;;;;;5053994;28;19909;-82
2022/11/16 07:32:27;;;;;;;;;;;10.30;99.90;;;;;;5052742;28;19927;-82
2022/11/16 07:34:52;;;;;;;;;;;10.30;99.90;;;;;;5053959;28;20376;-81
2022/11/16 07:37:18;;;;;;;;;;;10.30;99.90;;;;;;5053329;28;19909;-81
2022/11/16 07:39:44;;;;;;;;;;;10.30;99.90;;;;;;5053590;28;20358;-82
2022/11/16 07:42:11;;;;;;;;;;;10.30;99.90;;;;;;5051746;28;19913;-81
2022/11/16 07:44:37;;;;;;;;;;;10.30;99.90;;;;;;5052647;28;19920;-81
2022/11/16 07:47:02;;;;;;;;;;;10.40;99.90;;;;;;5052845;28;20515;-81
2022/11/16 07:49:28;;;;;;;;;;;10.40;99.90;;;;;;5053606;28;19915;-81
2022/11/16 07:51:54;;;;;;;;;;;10.40;99.90;;;;;;5053318;28;19970;-81
2022/11/16 07:54:19;;;;;;;;;;;10.40;99.90;;;;;;5052794;28;20365;-81
2022/11/16 07:56:44;;;;;;;;;;;10.40;99.90;;;;;;5053848;28;19916;-82
2022/11/16 07:59:10;;;;;;;;;;;10.40;99.90;;;;;;5051857;28;19908;-80
2022/11/16 08:01:35;;;;;;;;;;;10.40;99.90;;;;;;5051777;28;20366;-82
2022/11/16 08:04:01;;;;;;;;;;;10.40;99.90;;;;;;5051168;28;20050;-82
2022/11/16 08:06:27;;;;;;;;;;;10.40;99.90;;;;;;5052831;28;19909;-81
2022/11/16 08:08:53;;;;;;;;;;;10.40;99.90;;;;;;5051475;28;19947;-81
2022/11/16 08:11:18;;;;;;;;;;;10.50;99.90;;;;;;5053107;28;19963;-82
2022/11/16 08:13:44;;;;;;;;;;;10.50;99.90;;;;;;5052364;28;20366;-81
2022/11/16 08:16:11;;;;;;;;;;;10.50;99.90;;;;;;5053332;28;19909;-81
2022/11/16 08:18:38;;;;;;;;;;;10.50;99.90;;;;;;5051727;28;19908;-81
2022/11/16 08:21:04;;;;;;;;;;;10.50;99.90;;;;;;5053059;28;19915;-81
2022/11/16 08:23:30;;;;;;;;;;;10.60;99.90;;;;;;5052688;28;19959;-82
2022/11/16 08:25:59;;;;;;;;;;;10.60;99.90;;;;;;5052799;28;19913;-81
2022/11/16 08:28:25;;;;;;;;;;;10.50;99.90;;;;;;5051579;28;19915;-80
2022/11/16 08:30:52;;;;;;;;;;;10.50;99.90;;;;;;5052601;28;19909;-81
2022/11/16 08:33:19;;;;;;;;;;;10.50;99.90;;;;;;5051175;28;19916;-81
2022/11/16 08:35:45;;;;;;;;;;;10.60;99.90;;;;;;5052882;28;19909;-81
2022/11/16 08:38:10;;;;;;;;;;;10.70;99.90;;;;;;5052485;28;20355;-81
2022/11/16 08:40:37;;;;;;;;;;;10.70;99.90;;;;;;5052785;28;19916;-81
2022/11/16 08:43:02;;;;;;;;;;;10.70;99.90;;;;;;5054062;28;20358;-81
2022/11/16 08:45:28;;;;;;;;;;;10.60;99.90;;;;;;5055109;28;19918;-81
2022/11/16 08:47:54;;;;;;;;;;;10.60;99.90;;;;;;5055996;28;19940;-81
2022/11/16 08:50:20;;;;;;;;;;;10.50;99.90;;;;;;5056200;28;19908;-81
2022/11/16 08:52:46;;;;;;;;;;;10.50;99.90;;;;;;5054745;28;19962;-81
2022/11/16 08:55:12;;;;;;;;;;;10.60;99.90;;;;;;5056173;28;19991;-81
2022/11/16 08:57:38;;;;;;;;;;;10.70;99.90;;;;;;5061663;28;19909;-81
2022/11/16 09:00:04;;;;;;;;;;;10.80;99.90;;;;;;5061184;28;19932;-82
2022/11/16 09:02:30;;;;;;;;;;;11.00;99.90;;;;;;5056172;28;20004;-82
2022/11/16 09:04:56;;;;;;;;;;;11.10;99.90;;;;;;5059002;28;19955;-82
2022/11/16 09:07:21;;;;;;;;;;;11.30;99.90;;;;;;5057198;28;19909;-82
2022/11/16 09:09:47;;;;;;;;;;;11.30;99.90;;;;;;5058343;28;19915;-84
2022/11/16 09:12:12;;;;;;;;;;;11.60;99.90;;;;;;5042635;28;19924;-84
2022/11/16 09:14:38;;;;;;;;;;;11.80;99.90;;;;;;5040293;28;19909;-83
2022/11/16 09:17:03;;;;;;;;;;;12.10;99.90;;;;;;5040107;28;20378;-84
2022/11/16 09:19:28;;;;;;;;;;;12.30;99.90;;;;;;5040670;28;20252;-84
2022/11/16 09:21:54;;;;;;;;;;;12.50;99.90;;;;;;5057190;28;19959;-84
2022/11/16 09:24:20;;;;;;;;;;;12.60;99.90;;;;;;5058621;28;19908;-83
2022/11/16 09:26:45;;;;;;;;;;;12.70;99.90;;;;;;5059368;28;19980;-84
2022/11/16 09:29:12;;;;;;;;;;;12.90;99.90;;;;;;5057452;28;20263;-84
2022/11/16 09:31:37;;;;;;;;;;;13.00;99.90;;;;;;5057541;28;19909;-84
2022/11/16 09:34:02;;;;;;;;;;;13.20;99.90;;;;;;5058178;28;20282;-85
2022/11/16 09:36:28;;;;;;;;;;;13.30;99.90;;;;;;5058185;28;20012;-85
2022/11/16 09:38:54;;;;;;;;;;;13.30;99.90;;;;;;5058411;28;20278;-83
2022/11/16 09:41:28;;;;;;;;;;;13.40;99.90;;;;;;5058842;28;19948;-84
2022/11/16 09:44:12;;;;;;;;;;;13.40;99.90;;;;;;5052141;28;20004;-83
2022/11/16 09:46:51;;;;;;;;;;;13.20;99.90;;;;;;5057594;28;19916;-84
2022/11/16 09:49:21;;;;;;;;;;;13.00;99.90;;;;;;5054421;28;20377;-83
2022/11/16 09:51:49;;;;;;;;;;;12.80;99.90;;;;;;5053160;28;20266;-84
2022/11/16 09:54:16;;;;;;;;;;;12.70;99.90;;;;;;5065461;28;19917;-82
2022/11/16 09:56:43;;;;;;;;;;;12.50;99.90;;;;;;5054485;28;19909;-83
2022/11/16 09:59:08;;;;;;;;;;;12.50;99.90;;;;;;5056743;28;20524;-83
2022/11/16 10:01:46;;;;;;;;;;;12.40;99.90;;;;;;5055173;28;19908;-82
2022/11/16 10:04:14;;;;;;;;;;;12.50;99.90;;;;;;5053980;28;20011;-83
2022/11/16 10:06:45;;;;;;;;;;;12.60;99.90;;;;;;5056388;28;19931;-82
2022/11/16 10:09:11;;;;;;;;;;;12.50;99.90;;;;;;5055720;28;19909;-83
2022/11/16 10:11:49;;;;;;;;;;;12.60;99.90;;;;;;5053874;28;19959;-81
2022/11/16 10:14:23;;;;;;;;;;;12.60;99.90;;;;;;5052881;28;20290;-82
2022/11/16 10:16:54;;;;;;;;;;;12.70;99.90;;;;;;5054207;28;20028;-83
2022/11/16 10:19:29;;;;;;;;;;;12.80;99.90;;;;;;5052917;28;19908;-82
2022/11/16 10:22:07;;;;;;;;;;;12.90;99.90;;;;;;5053723;28;19939;-82
2022/11/16 10:24:59;;;;;;;;;;;12.90;99.90;;;;;;5036085;28;20378;-82
2022/11/16 10:27:26;;;;;;;;;;;13.00;99.90;;;;;;5036021;28;19913;-86
2022/11/16 10:29:51;;;;;;;;;;;13.10;99.90;;;;;;5051708;28;19938;-83
2022/11/16 10:32:21;;;;;;;;;;;13.10;99.90;;;;;;5053508;28;20411;-81
2022/11/16 10:34:54;;;;;;;;;;;13.10;99.90;;;;;;5072501;28;19915;-82
2022/11/16 10:37:20;;;;;;;;;;;13.20;99.90;;;;;;5075702;28;19909;-81
2022/11/16 10:39:46;;;;;;;;;;;13.20;99.90;;;;;;5073694;28;19912;-82
2022/11/16 10:42:25;;;;;;;;;;;13.30;99.90;;;;;;5075422;28;19912;-82
2022/11/16 10:45:11;;;;;;;;;;;13.40;99.90;;;;;;5075807;28;20377;-82
2022/11/16 10:47:43;;;;;;;;;;;13.40;99.90;;;;;;5064346;28;20365;-82
2022/11/16 10:50:26;;;;;;;;;;;13.50;99.90;;;;;;5075968;28;20280;-81
2022/11/16 10:52:51;;;;;;;;;;;13.60;99.90;;;;;;5074070;28;19962;-82
2022/11/16 10:55:17;;;;;;;;;;;13.70;99.90;;;;;;5074428;28;19913;-82
2022/11/16 10:57:53;;;;;;;;;;;13.90;99.90;;;;;;5075541;28;19909;-82
2022/11/16 11:00:51;;;;;;;;;;;15.10;99.90;;;;;;5074207;28;19915;-82
2022/11/16 11:03:30;;;;;;;;;;;17.10;99.90;;;;;;5061995;28;19917;-82
2022/11/16 11:05:55;;;;;;;;;;;17.80;99.90;;;;;;5073837;28;20372;-82
2022/11/16 11:08:26;;;;;;;;;;;17.10;99.90;;;;;;5073350;28;19915;-82
2022/11/16 11:14:21;;;;;;;;;;;16.00;99.90;;;;;;5073998;28;19915;-82
2022/11/16 11:16:51;;;;;;;;;;;15.40;99.90;;;;;;5061938;28;19909;-81
2022/11/16 11:19:24;;;;;;;;;;;15.30;99.90;;;;;;5074074;28;20531;-81
2022/11/16 11:21:54;;;;;;;;;;;15.30;99.90;;;;;;5073876;28;19951;-82
2022/11/16 11:24:19;;;;;;;;;;;15.70;99.90;;;;;;5074054;28;20003;-81
2022/11/16 11:26:49;;;;;;;;;;;16.50;99.90;;;;;;5074092;28;19960;-82
2022/11/16 11:29:30;;;;;;;;;;;18.80;99.90;;;;;;5074231;28;19990;-82
2022/11/16 11:32:00;;;;;;;;;;;21.40;99.90;;;;;;5072613;28;19942;-82
2022/11/16 11:34:31;;;;;;;;;;;23.50;99.90;;;;;;5072172;28;20437;-82
2022/11/16 11:37:00;;;;;;;;;;;25.30;99.90;;;;;;5073625;28;19934;-80
2022/11/16 11:39:33;;;;;;;;;;;26.40;99.90;;;;;;5072551;28;20369;-82
2022/11/16 11:42:00;;;;;;;;;;;27.80;95.20;;;;;;5073865;28;19977;-80
2022/11/16 11:44:50;;;;;;;;;;;28.80;85.90;;;;;;5071962;28;20269;-80
2022/11/16 11:47:22;;;;;;;;;;;28.70;77.50;;;;;;5067273;28;20270;-80
2022/11/16 11:49:54;;;;;;;;;;;28.80;74.70;;;;;;5072466;28;19930;-80
2022/11/16 11:52:21;;;;;;;;;;;29.10;75.20;;;;;;5073380;28;19947;-79
2022/11/16 11:54:49;;;;;;;;;;;29.60;69.70;;;;;;5071978;28;19916;-79
2022/11/16 11:57:19;;;;;;;;;;;28.70;72.70;;;;;;5072556;28;19959;-80
2022/11/16 11:59:45;;;;;;;;;;;27.40;67.40;;;;;;5074113;28;20272;-82
2022/11/16 12:02:28;;;;;;;;;;;26.80;70.90;;;;;;5071559;28;20368;-82
2022/11/16 12:05:07;;;;;;;;;;;26.60;74.70;;;;;;5061881;22;19935;-83
2022/11/16 12:07:38;;;;;;;;;;;27.10;77.00;;;;;;5053294;28;19961;-83
2022/11/16 12:10:13;;;;;;;;;;;27.90;73.80;;;;;;5054227;28;20008;-82
2022/11/16 12:12:41;;;;;;;;;;;28.60;68.40;;;;;;5053582;28;20030;-81
2022/11/16 12:15:25;;;;;;;;;;;29.00;65.90;;;;;;5053074;28;19909;-83
2022/11/16 12:17:50;;;;;;;;;;;29.00;63.50;;;;;;5053819;28;19999;-83
2022/11/16 12:20:28;;;;;;;;;;;29.50;61.80;;;;;;5056425;28;19962;-83
2022/11/16 12:22:59;;;;;;;;;;;29.70;60.90;;;;;;5057316;28;19913;-80
2022/11/16 12:25:25;;;;;;;;;;;28.30;59.10;;;;;;5058932;28;19919;-84
2022/11/16 12:28:02;;;;;;;;;;;26.40;61.50;;;;;;5057591;28;20358;-83
2022/11/16 12:30:31;;;;;;;;;;;24.80;66.90;;;;;;5056929;28;20365;-82
2022/11/16 12:33:20;;;;;;;;;;;23.70;70.40;;;;;;5056338;28;19912;-82
2022/11/16 12:35:50;;;;;;;;;;;22.60;74.10;;;;;;5055971;28;19909;-83
2022/11/16 12:38:38;;;;;;;;;;;22.30;78.60;;;;;;5058527;28;19959;-83
2022/11/16 12:41:09;;;;;;;;;;;21.80;83.20;;;;;;5058301;28;19912;-82
2022/11/16 12:44:03;;;;;;;;;;;21.20;85.90;;;;;;5057906;28;19916;-81
2022/11/16 12:46:38;;;;;;;;;;;20.50;90.70;;;;;;5054060;28;19930;-80
2022/11/16 12:49:15;;;;;;;;;;;20.80;93.10;;;;;;5048485;28;19963;-83
2022/11/16 12:51:52;;;;;;;;;;;21.10;95.00;;;;;;5059630;28;20377;-83
2022/11/16 12:54:20;;;;;;;;;;;20.50;93.90;;;;;;5078180;28;20294;-82
2022/11/16 12:57:12;;;;;;;;;;;20.00;95.40;;;;;;5076477;28;19909;-83
2022/11/16 12:59:44;;;;;;;;;;;21.50;96.70;;;;;;5060324;28;19954;-82
2022/11/16 13:02:09;;;;;;;;;;;22.60;90.00;;;;;;5077822;28;19943;-82
2022/11/16 13:04:39;;;;;;;;;;;23.00;90.20;;;;;;5076759;28;19927;-85
2022/11/16 13:07:11;;;;;;;;;;;22.90;86.20;;;;;;5078212;28;19916;-83
2022/11/16 13:09:38;;;;;;;;;;;22.50;85.90;;;;;;5078046;28;20007;-80
2022/11/16 13:12:05;;;;;;;;;;;23.40;90.50;;;;;;5076397;28;19912;-81
2022/11/16 13:14:38;;;;;;;;;;;24.30;84.00;;;;;;5075822;28;20378;-82
2022/11/16 13:17:04;;;;;;;;;;;23.10;81.20;;;;;;5077433;28;19912;-83
2022/11/16 13:19:30;;;;;;;;;;;21.50;83.60;;;;;;5077316;28;19954;-80
2022/11/16 13:22:03;;;;;;;;;;;20.40;90.10;;;;;;5077409;28;19909;-83
2022/11/16 13:24:31;;;;;;;;;;;19.60;94.00;;;;;;5077143;28;19923;-81
2022/11/16 13:27:20;;;;;;;;;;;18.90;96.40;;;;;;5077585;28;19960;-81
2022/11/16 13:29:56;;;;;;;;;;;18.30;98.90;;;;;;5077119;28;20309;-83
2022/11/16 13:32:27;;;;;;;;;;;18.00;99.90;;;;;;5075551;28;19913;-81
2022/11/16 13:34:53;;;;;;;;;;;18.00;99.90;;;;;;5077063;28;19908;-83
2022/11/16 13:37:37;;;;;;;;;;;17.90;99.90;;;;;;5077398;28;20369;-81
2022/11/16 13:40:03;;;;;;;;;;;17.90;99.90;;;;;;5076838;28;20374;-81
2022/11/16 13:42:33;;;;;;;;;;;18.00;99.90;;;;;;5077326;28;19944;-83
2022/11/16 13:45:06;;;;;;;;;;;17.90;99.90;;;;;;5076987;28;20085;-84
2022/11/16 13:47:32;;;;;;;;;;;18.00;99.90;;;;;;5075417;28;19931;-83
2022/11/16 13:50:01;;;;;;;;;;;18.10;99.90;;;;;;5075905;28;19912;-83
2022/11/16 13:52:44;;;;;;;;;;;18.00;99.90;;;;;;5075315;28;19913;-82
2022/11/16 13:55:24;;;;;;;;;;;17.90;99.90;;;;;;5077004;28;19916;-83
2022/11/16 13:57:50;;;;;;;;;;;17.90;99.90;;;;;;5076981;28;19908;-84
2022/11/16 14:00:21;;;;;;;;;;;17.80;99.90;;;;;;5075134;28;19989;-83
2022/11/16 14:02:46;;;;;;;;;;;17.60;99.90;;;;;;5076461;28;19909;-83
2022/11/16 14:05:12;;;;;;;;;;;17.40;99.90;;;;;;5091557;28;19912;-83
2022/11/16 14:07:41;;;;;;;;;;;17.10;99.90;;;;;;5076535;28;19909;-84
2022/11/16 14:10:07;;;;;;;;;;;16.80;99.90;;;;;;5076824;28;19909;-82
2022/11/16 14:12:36;;;;;;;;;;;16.50;99.90;;;;;;5075463;28;19913;-84
2022/11/16 14:15:11;;;;;;;;;;;16.40;99.90;;;;;;5076246;28;20352;-81
2022/11/16 14:17:49;;;;;;;;;;;16.20;99.90;;;;;;5076263;28;19916;-84
2022/11/16 14:20:23;;;;;;;;;;;16.10;99.90;;;;;;5076603;28;19915;-85
2022/11/16 14:23:10;;;;;;;;;;;16.00;99.90;;;;;;5091877;28;19939;-83
2022/11/16 14:25:35;;;;;;;;;;;15.90;99.90;;;;;;5076365;28;19908;-83
2022/11/16 14:28:07;;;;;;;;;;;15.90;99.90;;;;;;5076987;28;19908;-83
2022/11/16 14:30:44;;;;;;;;;;;15.90;99.90;;;;;;5074742;28;19912;-81
2022/11/16 14:33:12;;;;;;;;;;;16.10;99.90;;;;;;5074965;28;19912;-82
2022/11/16 14:35:38;;;;;;;;;;;16.10;99.90;;;;;;5076163;28;19908;-82
2022/11/16 14:38:20;;;;;;;;;;;16.00;99.90;;;;;;5092097;28;19920;-82
2022/11/16 14:40:47;;;;;;;;;;;15.90;99.90;;;;;;5074005;28;19931;-83
2022/11/16 14:43:26;;;;;;;;;;;15.70;99.90;;;;;;5075344;28;20344;-82
2022/11/16 14:45:55;;;;;;;;;;;15.50;99.90;;;;;;5074624;28;20396;-82
2022/11/16 14:48:21;;;;;;;;;;;15.30;99.90;;;;;;5076215;28;19934;-81
2022/11/16 14:50:57;;;;;;;;;;;15.10;99.90;;;;;;5075508;28;20392;-82
2022/11/16 14:53:23;;;;;;;;;;;14.90;99.90;;;;;;5075590;28;19913;-82
2022/11/16 14:55:49;;;;;;;;;;;14.70;99.90;;;;;;5076547;28;19909;-83
2022/11/16 14:58:17;;;;;;;;;;;14.50;99.90;;;;;;5071111;28;19913;-82
2022/11/16 15:00:59;;;;;;;;;;;14.40;99.90;;;;;;5056363;28;20011;-82
2022/11/16 15:03:26;;;;;;;;;;;14.30;99.90;;;;;;5054606;28;19923;-82
2022/11/16 15:05:51;;;;;;;;;;;14.20;99.90;;;;;;5053131;28;19913;-81
2022/11/16 15:08:19;;;;;;;;;;;14.10;99.90;;;;;;5053193;28;19919;-82
2022/11/16 15:10:45;;;;;;;;;;;14.00;99.90;;;;;;5052429;28;19913;-83